sensor_id;sensor_type;location;lat;lon;timestamp;pressure;altitude;pressure_sealevel;temperature
60966;BMP180;46834;51.100;6.886;2023-03-01T00:02:04;102478.00;;;6.40
60966;BMP180;46834;51.100;6.886;2023-03-01T00:04:30;102486.00;;;6.40
60966;BMP180;46834;51.100;6.886;2023-03-01T00:06:56;102470.00;;;6.40
60966;BMP180;46834;51.100;6.886;2023-03-01T00:09:22;102465.00;;;6.40
60966;BMP180;46834;51.100;6.886;2023-03-01T00:11:48;102476.00;;;6.40
60966;BMP180;46834;51.100;6.886;2023-03-01T00:14:15;102478.00;;;6.40
60966;BMP180;46834;51.100;6.886;2023-03-01T00:16:43;102478.00;;;6.30
60966;BMP180;46834;51.100;6.886;2023-03-01T00:19:13;102481.00;;;6.30
60966;BMP180;46834;51.100;6.886;2023-03-01T00:21:40;102467.00;;;6.30
60966;BMP180;46834;51.100;6.886;2023-03-01T00:24:06;102471.00;;;6.30
60966;BMP180;46834;51.100;6.886;2023-03-01T00:26:32;102464.00;;;6.30
60966;BMP180;46834;51.100;6.886;2023-03-01T00:28:59;102478.00;;;6.30
60966;BMP180;46834;51.100;6.886;2023-03-01T00:31:29;102463.00;;;6.20
60966;BMP180;46834;51.100;6.886;2023-03-01T00:33:59;102468.00;;;6.20
60966;BMP180;46834;51.100;6.886;2023-03-01T00:36:28;102470.00;;;6.20
60966;BMP180;46834;51.100;6.886;2023-03-01T00:38:54;102469.00;;;6.20
60966;BMP180;46834;51.100;6.886;2023-03-01T00:41:21;102470.00;;;6.20
60966;BMP180;46834;51.100;6.886;2023-03-01T00:43:49;102455.00;;;6.20
60966;BMP180;46834;51.100;6.886;2023-03-01T00:46:19;102461.00;;;6.10
60966;BMP180;46834;51.100;6.886;2023-03-01T00:48:46;102459.00;;;6.10
60966;BMP180;46834;51.100;6.886;2023-03-01T00:51:15;102456.00;;;6.10
60966;BMP180;46834;51.100;6.886;2023-03-01T00:53:42;102446.00;;;6.10
60966;BMP180;46834;51.100;6.886;2023-03-01T00:56:14;102459.00;;;6.10
60966;BMP180;46834;51.100;6.886;2023-03-01T00:58:40;102447.00;;;6.10
60966;BMP180;46834;51.100;6.886;2023-03-01T01:01:15;102453.00;;;6.00
60966;BMP180;46834;51.100;6.886;2023-03-01T01:04:03;102465.00;;;6.00
60966;BMP180;46834;51.100;6.886;2023-03-01T01:06:39;102456.00;;;6.00
60966;BMP180;46834;51.100;6.886;2023-03-01T01:09:09;102438.00;;;5.90
60966;BMP180;46834;51.100;6.886;2023-03-01T01:11:48;102452.00;;;5.90
60966;BMP180;46834;51.100;6.886;2023-03-01T01:14:14;102449.00;;;5.90
60966;BMP180;46834;51.100;6.886;2023-03-01T01:16:40;102437.00;;;5.90
60966;BMP180;46834;51.100;6.886;2023-03-01T01:19:06;102443.00;;;5.90
60966;BMP180;46834;51.100;6.886;2023-03-01T01:21:32;102426.00;;;5.90
60966;BMP180;46834;51.100;6.886;2023-03-01T01:23:58;102431.00;;;5.90
60966;BMP180;46834;51.100;6.886;2023-03-01T01:26:28;102416.00;;;5.80
60966;BMP180;46834;51.100;6.886;2023-03-01T01:28:55;102412.00;;;5.80
60966;BMP180;46834;51.100;6.886;2023-03-01T01:31:22;102419.00;;;5.80
60966;BMP180;46834;51.100;6.886;2023-03-01T01:33:50;102412.00;;;5.80
60966;BMP180;46834;51.100;6.886;2023-03-01T01:36:16;102408.00;;;5.70
60966;BMP180;46834;51.100;6.886;2023-03-01T01:38:42;102400.00;;;5.70
60966;BMP180;46834;51.100;6.886;2023-03-01T01:41:09;102387.00;;;5.70
60966;BMP180;46834;51.100;6.886;2023-03-01T01:46:33;102377.00;;;5.70
60966;BMP180;46834;51.100;6.886;2023-03-01T01:49:10;102387.00;;;5.70
60966;BMP180;46834;51.100;6.886;2023-03-01T01:51:42;102390.00;;;5.70
60966;BMP180;46834;51.100;6.886;2023-03-01T01:54:19;102388.00;;;5.60
60966;BMP180;46834;51.100;6.886;2023-03-01T01:56:56;102364.00;;;5.60
60966;BMP180;46834;51.100;6.886;2023-03-01T01:59:23;102355.00;;;5.60
60966;BMP180;46834;51.100;6.886;2023-03-01T02:01:52;102369.00;;;5.60
60966;BMP180;46834;51.100;6.886;2023-03-01T02:04:19;102360.00;;;5.60
60966;BMP180;46834;51.100;6.886;2023-03-01T02:07:16;102362.00;;;5.60
60966;BMP180;46834;51.100;6.886;2023-03-01T02:09:47;102368.00;;;5.60
60966;BMP180;46834;51.100;6.886;2023-03-01T02:12:15;102362.00;;;5.60
60966;BMP180;46834;51.100;6.886;2023-03-01T02:14:43;102363.00;;;5.60
60966;BMP180;46834;51.100;6.886;2023-03-01T02:17:11;102366.00;;;5.60
60966;BMP180;46834;51.100;6.886;2023-03-01T02:20:14;102365.00;;;5.50
60966;BMP180;46834;51.100;6.886;2023-03-01T02:22:44;102364.00;;;5.50
60966;BMP180;46834;51.100;6.886;2023-03-01T02:25:21;102362.00;;;5.50
60966;BMP180;46834;51.100;6.886;2023-03-01T02:28:18;102360.00;;;5.40
60966;BMP180;46834;51.100;6.886;2023-03-01T02:30:49;102365.00;;;5.40
60966;BMP180;46834;51.100;6.886;2023-03-01T02:33:38;102366.00;;;5.40
60966;BMP180;46834;51.100;6.886;2023-03-01T02:36:10;102373.00;;;5.40
60966;BMP180;46834;51.100;6.886;2023-03-01T02:38:40;102360.00;;;5.40
60966;BMP180;46834;51.100;6.886;2023-03-01T02:41:08;102374.00;;;5.40
60966;BMP180;46834;51.100;6.886;2023-03-01T02:43:36;102365.00;;;5.40
60966;BMP180;46834;51.100;6.886;2023-03-01T02:46:13;102370.00;;;5.40
60966;BMP180;46834;51.100;6.886;2023-03-01T02:48:42;102367.00;;;5.40
60966;BMP180;46834;51.100;6.886;2023-03-01T02:54:10;102361.00;;;5.30
60966;BMP180;46834;51.100;6.886;2023-03-01T02:56:38;102359.00;;;5.30
60966;BMP180;46834;51.100;6.886;2023-03-01T02:59:04;102346.00;;;5.30
60966;BMP180;46834;51.100;6.886;2023-03-01T03:01:30;102352.00;;;5.30
60966;BMP180;46834;51.100;6.886;2023-03-01T03:04:07;102338.00;;;5.30
60966;BMP180;46834;51.100;6.886;2023-03-01T03:06:35;102340.00;;;5.30
60966;BMP180;46834;51.100;6.886;2023-03-01T03:09:03;102348.00;;;5.30
60966;BMP180;46834;51.100;6.886;2023-03-01T03:11:29;102334.00;;;5.30
60966;BMP180;46834;51.100;6.886;2023-03-01T03:13:56;102347.00;;;5.20
60966;BMP180;46834;51.100;6.886;2023-03-01T03:16:23;102347.00;;;5.20
60966;BMP180;46834;51.100;6.886;2023-03-01T03:18:50;102333.00;;;5.20
60966;BMP180;46834;51.100;6.886;2023-03-01T03:21:16;102344.00;;;5.20
60966;BMP180;46834;51.100;6.886;2023-03-01T03:23:42;102341.00;;;5.20
60966;BMP180;46834;51.100;6.886;2023-03-01T03:26:08;102340.00;;;5.20
60966;BMP180;46834;51.100;6.886;2023-03-01T03:28:34;102329.00;;;5.20
60966;BMP180;46834;51.100;6.886;2023-03-01T03:31:01;102337.00;;;5.20
60966;BMP180;46834;51.100;6.886;2023-03-01T03:33:30;102309.00;;;5.10
60966;BMP180;46834;51.100;6.886;2023-03-01T03:35:56;102327.00;;;5.10
60966;BMP180;46834;51.100;6.886;2023-03-01T03:38:22;102328.00;;;5.10
60966;BMP180;46834;51.100;6.886;2023-03-01T03:41:12;102316.00;;;5.10
60966;BMP180;46834;51.100;6.886;2023-03-01T03:43:39;102313.00;;;5.00
60966;BMP180;46834;51.100;6.886;2023-03-01T03:46:07;102331.00;;;5.10
60966;BMP180;46834;51.100;6.886;2023-03-01T03:48:42;102328.00;;;5.00
60966;BMP180;46834;51.100;6.886;2023-03-01T03:51:14;102320.00;;;5.00
60966;BMP180;46834;51.100;6.886;2023-03-01T03:53:41;102320.00;;;5.00
60966;BMP180;46834;51.100;6.886;2023-03-01T03:56:08;102324.00;;;5.00
60966;BMP180;46834;51.100;6.886;2023-03-01T03:58:34;102309.00;;;5.00
60966;BMP180;46834;51.100;6.886;2023-03-01T04:01:00;102315.00;;;5.00
60966;BMP180;46834;51.100;6.886;2023-03-01T04:03:28;102313.00;;;5.00
60966;BMP180;46834;51.100;6.886;2023-03-01T04:05:57;102309.00;;;4.90
60966;BMP180;46834;51.100;6.886;2023-03-01T04:08:23;102307.00;;;5.00
60966;BMP180;46834;51.100;6.886;2023-03-01T04:10:52;102296.00;;;4.90
60966;BMP180;46834;51.100;6.886;2023-03-01T04:13:21;102298.00;;;4.90
60966;BMP180;46834;51.100;6.886;2023-03-01T04:15:52;102307.00;;;4.90
60966;BMP180;46834;51.100;6.886;2023-03-01T04:18:21;102301.00;;;4.90
60966;BMP180;46834;51.100;6.886;2023-03-01T04:20:47;102292.00;;;4.90
60966;BMP180;46834;51.100;6.886;2023-03-01T04:23:19;102291.00;;;4.90
60966;BMP180;46834;51.100;6.886;2023-03-01T04:25:51;102287.00;;;4.80
60966;BMP180;46834;51.100;6.886;2023-03-01T04:28:41;102292.00;;;4.80
60966;BMP180;46834;51.100;6.886;2023-03-01T04:31:17;102299.00;;;4.80
60966;BMP180;46834;51.100;6.886;2023-03-01T04:33:54;102275.00;;;4.80
60966;BMP180;46834;51.100;6.886;2023-03-01T04:36:28;102276.00;;;4.80
60966;BMP180;46834;51.100;6.886;2023-03-01T04:38:55;102277.00;;;4.80
60966;BMP180;46834;51.100;6.886;2023-03-01T04:41:24;102292.00;;;4.80
60966;BMP180;46834;51.100;6.886;2023-03-01T04:43:50;102286.00;;;4.80
60966;BMP180;46834;51.100;6.886;2023-03-01T04:46:20;102289.00;;;4.70
60966;BMP180;46834;51.100;6.886;2023-03-01T04:48:46;102272.00;;;4.70
60966;BMP180;46834;51.100;6.886;2023-03-01T04:51:12;102278.00;;;4.70
60966;BMP180;46834;51.100;6.886;2023-03-01T04:53:40;102284.00;;;4.70
60966;BMP180;46834;51.100;6.886;2023-03-01T04:56:06;102279.00;;;4.70
60966;BMP180;46834;51.100;6.886;2023-03-01T04:58:32;102277.00;;;4.70
60966;BMP180;46834;51.100;6.886;2023-03-01T05:00:58;102273.00;;;4.70
60966;BMP180;46834;51.100;6.886;2023-03-01T05:03:24;102266.00;;;4.70
60966;BMP180;46834;51.100;6.886;2023-03-01T05:05:53;102268.00;;;4.70
60966;BMP180;46834;51.100;6.886;2023-03-01T05:08:19;102269.00;;;4.70
60966;BMP180;46834;51.100;6.886;2023-03-01T05:10:52;102273.00;;;4.60
60966;BMP180;46834;51.100;6.886;2023-03-01T05:13:20;102272.00;;;4.60
60966;BMP180;46834;51.100;6.886;2023-03-01T05:15:56;102276.00;;;4.60
60966;BMP180;46834;51.100;6.886;2023-03-01T05:18:24;102269.00;;;4.60
60966;BMP180;46834;51.100;6.886;2023-03-01T05:20:55;102262.00;;;4.60
60966;BMP180;46834;51.100;6.886;2023-03-01T05:23:22;102267.00;;;4.60
60966;BMP180;46834;51.100;6.886;2023-03-01T05:25:48;102267.00;;;4.60
60966;BMP180;46834;51.100;6.886;2023-03-01T05:28:14;102266.00;;;4.60
60966;BMP180;46834;51.100;6.886;2023-03-01T05:30:40;102286.00;;;4.60
60966;BMP180;46834;51.100;6.886;2023-03-01T05:33:08;102280.00;;;4.50
60966;BMP180;46834;51.100;6.886;2023-03-01T05:35:44;102279.00;;;4.50
60966;BMP180;46834;51.100;6.886;2023-03-01T05:38:12;102266.00;;;4.50
60966;BMP180;46834;51.100;6.886;2023-03-01T05:40:42;102269.00;;;4.50
60966;BMP180;46834;51.100;6.886;2023-03-01T05:43:09;102261.00;;;4.50
60966;BMP180;46834;51.100;6.886;2023-03-01T05:45:37;102261.00;;;4.50
60966;BMP180;46834;51.100;6.886;2023-03-01T05:48:05;102267.00;;;4.50
60966;BMP180;46834;51.100;6.886;2023-03-01T05:50:43;102260.00;;;4.50
60966;BMP180;46834;51.100;6.886;2023-03-01T05:53:14;102253.00;;;4.50
60966;BMP180;46834;51.100;6.886;2023-03-01T05:55:41;102258.00;;;4.50
60966;BMP180;46834;51.100;6.886;2023-03-01T05:58:15;102264.00;;;4.50
60966;BMP180;46834;51.100;6.886;2023-03-01T06:00:44;102256.00;;;4.40
60966;BMP180;46834;51.100;6.886;2023-03-01T06:03:12;102256.00;;;4.40
60966;BMP180;46834;51.100;6.886;2023-03-01T06:05:40;102258.00;;;4.40
60966;BMP180;46834;51.100;6.886;2023-03-01T06:08:06;102256.00;;;4.40
60966;BMP180;46834;51.100;6.886;2023-03-01T06:10:32;102261.00;;;4.40
60966;BMP180;46834;51.100;6.886;2023-03-01T06:12:58;102241.00;;;4.40
60966;BMP180;46834;51.100;6.886;2023-03-01T06:15:24;102248.00;;;4.40
60966;BMP180;46834;51.100;6.886;2023-03-01T06:17:50;102254.00;;;4.40
60966;BMP180;46834;51.100;6.886;2023-03-01T06:20:23;102257.00;;;4.30
60966;BMP180;46834;51.100;6.886;2023-03-01T06:22:50;102264.00;;;4.40
60966;BMP180;46834;51.100;6.886;2023-03-01T06:25:23;102268.00;;;4.30
60966;BMP180;46834;51.100;6.886;2023-03-01T06:27:49;102260.00;;;4.40
60966;BMP180;46834;51.100;6.886;2023-03-01T06:30:18;102262.00;;;4.30
60966;BMP180;46834;51.100;6.886;2023-03-01T06:32:44;102260.00;;;4.30
60966;BMP180;46834;51.100;6.886;2023-03-01T06:35:14;102258.00;;;4.30
60966;BMP180;46834;51.100;6.886;2023-03-01T06:37:42;102262.00;;;4.30
60966;BMP180;46834;51.100;6.886;2023-03-01T06:40:10;102259.00;;;4.30
60966;BMP180;46834;51.100;6.886;2023-03-01T06:42:39;102261.00;;;4.30
60966;BMP180;46834;51.100;6.886;2023-03-01T06:45:06;102261.00;;;4.30
60966;BMP180;46834;51.100;6.886;2023-03-01T06:47:33;102255.00;;;4.30
60966;BMP180;46834;51.100;6.886;2023-03-01T06:50:03;102254.00;;;4.30
60966;BMP180;46834;51.100;6.886;2023-03-01T06:52:29;102246.00;;;4.40
60966;BMP180;46834;51.100;6.886;2023-03-01T06:54:55;102258.00;;;4.40
60966;BMP180;46834;51.100;6.886;2023-03-01T06:57:21;102261.00;;;4.40
60966;BMP180;46834;51.100;6.886;2023-03-01T06:59:47;102260.00;;;4.40
60966;BMP180;46834;51.100;6.886;2023-03-01T07:02:14;102255.00;;;4.40
60966;BMP180;46834;51.100;6.886;2023-03-01T07:04:41;102234.00;;;4.40
60966;BMP180;46834;51.100;6.886;2023-03-01T07:07:07;102248.00;;;4.40
60966;BMP180;46834;51.100;6.886;2023-03-01T07:09:32;102251.00;;;4.50
60966;BMP180;46834;51.100;6.886;2023-03-01T07:11:58;102249.00;;;4.50
60966;BMP180;46834;51.100;6.886;2023-03-01T07:14:24;102241.00;;;4.50
60966;BMP180;46834;51.100;6.886;2023-03-01T07:16:54;102232.00;;;4.50
60966;BMP180;46834;51.100;6.886;2023-03-01T07:19:21;102234.00;;;4.50
60966;BMP180;46834;51.100;6.886;2023-03-01T07:21:47;102243.00;;;4.60
60966;BMP180;46834;51.100;6.886;2023-03-01T07:24:13;102231.00;;;4.60
60966;BMP180;46834;51.100;6.886;2023-03-01T07:26:38;102246.00;;;4.60
60966;BMP180;46834;51.100;6.886;2023-03-01T07:29:07;102238.00;;;4.60
60966;BMP180;46834;51.100;6.886;2023-03-01T07:31:33;102232.00;;;4.60
60966;BMP180;46834;51.100;6.886;2023-03-01T07:33:59;102239.00;;;4.60
60966;BMP180;46834;51.100;6.886;2023-03-01T07:36:25;102251.00;;;4.70
60966;BMP180;46834;51.100;6.886;2023-03-01T07:38:51;102248.00;;;4.70
60966;BMP180;46834;51.100;6.886;2023-03-01T07:41:17;102251.00;;;4.70
60966;BMP180;46834;51.100;6.886;2023-03-01T07:43:43;102246.00;;;4.70
60966;BMP180;46834;51.100;6.886;2023-03-01T07:46:09;102238.00;;;4.80
60966;BMP180;46834;51.100;6.886;2023-03-01T07:48:34;102240.00;;;4.80
60966;BMP180;46834;51.100;6.886;2023-03-01T07:51:02;102257.00;;;4.80
60966;BMP180;46834;51.100;6.886;2023-03-01T07:53:28;102262.00;;;4.80
60966;BMP180;46834;51.100;6.886;2023-03-01T07:56:06;102261.00;;;4.90
60966;BMP180;46834;51.100;6.886;2023-03-01T07:58:35;102253.00;;;4.90
60966;BMP180;46834;51.100;6.886;2023-03-01T08:01:03;102245.00;;;4.90
60966;BMP180;46834;51.100;6.886;2023-03-01T08:03:29;102240.00;;;4.90
60966;BMP180;46834;51.100;6.886;2023-03-01T08:05:55;102253.00;;;5.00
60966;BMP180;46834;51.100;6.886;2023-03-01T08:08:21;102249.00;;;5.00
60966;BMP180;46834;51.100;6.886;2023-03-01T08:10:46;102247.00;;;5.10
60966;BMP180;46834;51.100;6.886;2023-03-01T08:13:12;102242.00;;;5.10
60966;BMP180;46834;51.100;6.886;2023-03-01T08:15:38;102237.00;;;5.10
60966;BMP180;46834;51.100;6.886;2023-03-01T08:18:04;102243.00;;;5.20
60966;BMP180;46834;51.100;6.886;2023-03-01T08:20:29;102236.00;;;5.20
60966;BMP180;46834;51.100;6.886;2023-03-01T08:22:57;102241.00;;;5.20
60966;BMP180;46834;51.100;6.886;2023-03-01T08:25:23;102242.00;;;5.20
60966;BMP180;46834;51.100;6.886;2023-03-01T08:27:49;102240.00;;;5.50
60966;BMP180;46834;51.100;6.886;2023-03-01T08:30:15;102248.00;;;5.40
60966;BMP180;46834;51.100;6.886;2023-03-01T08:32:40;102252.00;;;5.40
60966;BMP180;46834;51.100;6.886;2023-03-01T08:35:06;102241.00;;;5.30
60966;BMP180;46834;51.100;6.886;2023-03-01T08:37:32;102246.00;;;5.30
60966;BMP180;46834;51.100;6.886;2023-03-01T08:39:59;102225.00;;;5.30
60966;BMP180;46834;51.100;6.886;2023-03-01T08:42:26;102243.00;;;5.70
60966;BMP180;46834;51.100;6.886;2023-03-01T08:44:52;102242.00;;;5.60
60966;BMP180;46834;51.100;6.886;2023-03-01T08:47:18;102243.00;;;5.70
60966;BMP180;46834;51.100;6.886;2023-03-01T08:49:44;102249.00;;;5.60
60966;BMP180;46834;51.100;6.886;2023-03-01T08:52:09;102239.00;;;5.60
60966;BMP180;46834;51.100;6.886;2023-03-01T08:54:36;102244.00;;;5.80
60966;BMP180;46834;51.100;6.886;2023-03-01T08:57:02;102244.00;;;5.80
60966;BMP180;46834;51.100;6.886;2023-03-01T08:59:28;102238.00;;;5.80
60966;BMP180;46834;51.100;6.886;2023-03-01T09:01:56;102243.00;;;5.80
60966;BMP180;46834;51.100;6.886;2023-03-01T09:04:22;102232.00;;;5.70
60966;BMP180;46834;51.100;6.886;2023-03-01T09:06:48;102243.00;;;5.90
60966;BMP180;46834;51.100;6.886;2023-03-01T09:09:17;102242.00;;;5.80
60966;BMP180;46834;51.100;6.886;2023-03-01T09:11:44;102236.00;;;5.80
60966;BMP180;46834;51.100;6.886;2023-03-01T09:14:15;102232.00;;;5.80
60966;BMP180;46834;51.100;6.886;2023-03-01T09:16:41;102236.00;;;5.80
60966;BMP180;46834;51.100;6.886;2023-03-01T09:19:07;102237.00;;;5.80
60966;BMP180;46834;51.100;6.886;2023-03-01T09:21:33;102226.00;;;5.90
60966;BMP180;46834;51.100;6.886;2023-03-01T09:23:59;102221.00;;;5.90
60966;BMP180;46834;51.100;6.886;2023-03-01T09:26:25;102225.00;;;6.00
60966;BMP180;46834;51.100;6.886;2023-03-01T09:28:54;102224.00;;;6.10
60966;BMP180;46834;51.100;6.886;2023-03-01T09:31:23;102224.00;;;6.20
60966;BMP180;46834;51.100;6.886;2023-03-01T09:33:52;102212.00;;;6.20
60966;BMP180;46834;51.100;6.886;2023-03-01T09:36:22;102209.00;;;6.20
60966;BMP180;46834;51.100;6.886;2023-03-01T09:38:49;102218.00;;;6.20
60966;BMP180;46834;51.100;6.886;2023-03-01T09:41:22;102194.00;;;6.20
60966;BMP180;46834;51.100;6.886;2023-03-01T09:43:56;102209.00;;;6.20
60966;BMP180;46834;51.100;6.886;2023-03-01T09:46:26;102193.00;;;6.30
60966;BMP180;46834;51.100;6.886;2023-03-01T09:48:59;102199.00;;;6.40
60966;BMP180;46834;51.100;6.886;2023-03-01T09:51:32;102205.00;;;6.40
60966;BMP180;46834;51.100;6.886;2023-03-01T09:54:01;102209.00;;;6.50
60966;BMP180;46834;51.100;6.886;2023-03-01T09:56:59;102198.00;;;6.50
60966;BMP180;46834;51.100;6.886;2023-03-01T10:02:33;102201.00;;;6.60
60966;BMP180;46834;51.100;6.886;2023-03-01T10:05:21;102201.00;;;6.70
60966;BMP180;46834;51.100;6.886;2023-03-01T10:10:43;102194.00;;;7.00
60966;BMP180;46834;51.100;6.886;2023-03-01T10:16:50;102188.00;;;7.50
60966;BMP180;46834;51.100;6.886;2023-03-01T10:22:28;102191.00;;;7.30
60966;BMP180;46834;51.100;6.886;2023-03-01T10:24:59;102182.00;;;7.40
60966;BMP180;46834;51.100;6.886;2023-03-01T10:27:49;102185.00;;;7.40
60966;BMP180;46834;51.100;6.886;2023-03-01T10:30:38;102180.00;;;7.50
60966;BMP180;46834;51.100;6.886;2023-03-01T10:33:37;102181.00;;;7.60
60966;BMP180;46834;51.100;6.886;2023-03-01T10:36:02;102166.00;;;7.80
60966;BMP180;46834;51.100;6.886;2023-03-01T10:38:47;102174.00;;;7.90
60966;BMP180;46834;51.100;6.886;2023-03-01T10:41:14;102179.00;;;8.10
60966;BMP180;46834;51.100;6.886;2023-03-01T10:43:48;102176.00;;;8.10
60966;BMP180;46834;51.100;6.886;2023-03-01T10:46:36;102169.00;;;8.20
60966;BMP180;46834;51.100;6.886;2023-03-01T10:49:19;102164.00;;;8.20
60966;BMP180;46834;51.100;6.886;2023-03-01T10:51:49;102157.00;;;8.30
60966;BMP180;46834;51.100;6.886;2023-03-01T10:54:30;102148.00;;;8.30
60966;BMP180;46834;51.100;6.886;2023-03-01T10:57:03;102155.00;;;8.40
60966;BMP180;46834;51.100;6.886;2023-03-01T10:59:36;102158.00;;;8.40
60966;BMP180;46834;51.100;6.886;2023-03-01T11:07:53;102158.00;;;8.40
60966;BMP180;46834;51.100;6.886;2023-03-01T11:10:34;102153.00;;;8.50
60966;BMP180;46834;51.100;6.886;2023-03-01T11:13:14;102150.00;;;8.50
60966;BMP180;46834;51.100;6.886;2023-03-01T11:15:41;102139.00;;;8.90
60966;BMP180;46834;51.100;6.886;2023-03-01T11:18:22;102115.00;;;8.80
60966;BMP180;46834;51.100;6.886;2023-03-01T11:20:53;102115.00;;;8.80
60966;BMP180;46834;51.100;6.886;2023-03-01T11:23:21;102115.00;;;8.80
60966;BMP180;46834;51.100;6.886;2023-03-01T11:26:08;102106.00;;;8.70
60966;BMP180;46834;51.100;6.886;2023-03-01T11:28:39;102097.00;;;8.80
60966;BMP180;46834;51.100;6.886;2023-03-01T11:31:11;102095.00;;;9.10
60966;BMP180;46834;51.100;6.886;2023-03-01T11:33:49;102105.00;;;9.00
60966;BMP180;46834;51.100;6.886;2023-03-01T11:38:56;102098.00;;;9.00
60966;BMP180;46834;51.100;6.886;2023-03-01T11:41:35;102103.00;;;9.30
60966;BMP180;46834;51.100;6.886;2023-03-01T11:44:25;102095.00;;;9.30
60966;BMP180;46834;51.100;6.886;2023-03-01T11:50:45;102090.00;;;9.60
60966;BMP180;46834;51.100;6.886;2023-03-01T11:53:50;102089.00;;;9.50
60966;BMP180;46834;51.100;6.886;2023-03-01T11:56:35;102084.00;;;9.50
60966;BMP180;46834;51.100;6.886;2023-03-01T12:02:27;102107.00;;;9.50
60966;BMP180;46834;51.100;6.886;2023-03-01T12:14:47;102050.00;;;10.00
60966;BMP180;46834;51.100;6.886;2023-03-01T12:17:46;102056.00;;;9.90
60966;BMP180;46834;51.100;6.886;2023-03-01T12:20:39;102049.00;;;9.90
60966;BMP180;46834;51.100;6.886;2023-03-01T12:23:28;102062.00;;;9.90
60966;BMP180;46834;51.100;6.886;2023-03-01T12:32:09;102044.00;;;10.00
60966;BMP180;46834;51.100;6.886;2023-03-01T12:34:55;102060.00;;;10.00
60966;BMP180;46834;51.100;6.886;2023-03-01T12:37:55;102046.00;;;10.10
60966;BMP180;46834;51.100;6.886;2023-03-01T12:43:17;102015.00;;;10.20
60966;BMP180;46834;51.100;6.886;2023-03-01T12:46:01;102026.00;;;10.30
60966;BMP180;46834;51.100;6.886;2023-03-01T12:49:14;102022.00;;;10.30
60966;BMP180;46834;51.100;6.886;2023-03-01T12:52:02;102021.00;;;10.30
60966;BMP180;46834;51.100;6.886;2023-03-01T12:54:35;102017.00;;;10.50
60966;BMP180;46834;51.100;6.886;2023-03-01T12:57:38;102021.00;;;10.80
60966;BMP180;46834;51.100;6.886;2023-03-01T13:00:32;102004.00;;;10.80
60966;BMP180;46834;51.100;6.886;2023-03-01T13:03:23;102019.00;;;10.70
60966;BMP180;46834;51.100;6.886;2023-03-01T13:11:23;102007.00;;;10.80
60966;BMP180;46834;51.100;6.886;2023-03-01T13:13:50;101997.00;;;10.80
60966;BMP180;46834;51.100;6.886;2023-03-01T13:16:41;102002.00;;;10.80
60966;BMP180;46834;51.100;6.886;2023-03-01T13:19:27;102004.00;;;10.90
60966;BMP180;46834;51.100;6.886;2023-03-01T13:21:55;102008.00;;;10.90
60966;BMP180;46834;51.100;6.886;2023-03-01T13:24:39;101996.00;;;10.90
60966;BMP180;46834;51.100;6.886;2023-03-01T13:29:47;101991.00;;;11.00
60966;BMP180;46834;51.100;6.886;2023-03-01T13:32:26;101998.00;;;11.00
60966;BMP180;46834;51.100;6.886;2023-03-01T13:37:45;101990.00;;;11.10
60966;BMP180;46834;51.100;6.886;2023-03-01T13:42:53;101984.00;;;11.10
60966;BMP180;46834;51.100;6.886;2023-03-01T13:45:34;101970.00;;;11.20
60966;BMP180;46834;51.100;6.886;2023-03-01T13:48:15;101995.00;;;11.50
60966;BMP180;46834;51.100;6.886;2023-03-01T13:51:01;101986.00;;;11.40
60966;BMP180;46834;51.100;6.886;2023-03-01T13:53:34;101989.00;;;11.50
60966;BMP180;46834;51.100;6.886;2023-03-01T13:58:48;101977.00;;;11.50
60966;BMP180;46834;51.100;6.886;2023-03-01T14:03:51;101984.00;;;11.50
60966;BMP180;46834;51.100;6.886;2023-03-01T14:06:26;101986.00;;;11.50
60966;BMP180;46834;51.100;6.886;2023-03-01T14:09:20;101973.00;;;11.50
60966;BMP180;46834;51.100;6.886;2023-03-01T14:15:23;101969.00;;;11.50
60966;BMP180;46834;51.100;6.886;2023-03-01T14:20:30;101973.00;;;11.60
60966;BMP180;46834;51.100;6.886;2023-03-01T14:23:02;101956.00;;;11.60
60966;BMP180;46834;51.100;6.886;2023-03-01T14:25:36;101957.00;;;11.60
60966;BMP180;46834;51.100;6.886;2023-03-01T14:28:28;101961.00;;;11.50
60966;BMP180;46834;51.100;6.886;2023-03-01T14:31:00;101962.00;;;11.60
60966;BMP180;46834;51.100;6.886;2023-03-01T14:33:36;101954.00;;;11.60
60966;BMP180;46834;51.100;6.886;2023-03-01T14:38:40;101939.00;;;11.60
60966;BMP180;46834;51.100;6.886;2023-03-01T14:41:14;101941.00;;;11.60
60966;BMP180;46834;51.100;6.886;2023-03-01T14:43:59;101922.00;;;11.60
60966;BMP180;46834;51.100;6.886;2023-03-01T14:46:38;101923.00;;;11.60
60966;BMP180;46834;51.100;6.886;2023-03-01T14:49:16;101925.00;;;11.60
60966;BMP180;46834;51.100;6.886;2023-03-01T14:54:39;101923.00;;;11.70
60966;BMP180;46834;51.100;6.886;2023-03-01T14:57:14;101923.00;;;11.70
60966;BMP180;46834;51.100;6.886;2023-03-01T14:59:48;101917.00;;;11.80
60966;BMP180;46834;51.100;6.886;2023-03-01T15:02:19;101906.00;;;11.80
60966;BMP180;46834;51.100;6.886;2023-03-01T15:04:56;101895.00;;;11.70
60966;BMP180;46834;51.100;6.886;2023-03-01T15:07:32;101913.00;;;11.80
60966;BMP180;46834;51.100;6.886;2023-03-01T15:10:00;101905.00;;;11.80
60966;BMP180;46834;51.100;6.886;2023-03-01T15:14:58;101907.00;;;11.80
60966;BMP180;46834;51.100;6.886;2023-03-01T15:17:38;101895.00;;;11.80
60966;BMP180;46834;51.100;6.886;2023-03-01T15:20:16;101899.00;;;11.80
60966;BMP180;46834;51.100;6.886;2023-03-01T15:22:44;101905.00;;;11.80
60966;BMP180;46834;51.100;6.886;2023-03-01T15:25:24;101900.00;;;11.80
60966;BMP180;46834;51.100;6.886;2023-03-01T15:27:54;101907.00;;;11.90
60966;BMP180;46834;51.100;6.886;2023-03-01T15:30:33;101901.00;;;11.90
60966;BMP180;46834;51.100;6.886;2023-03-01T15:35:50;101890.00;;;11.90
60966;BMP180;46834;51.100;6.886;2023-03-01T15:38:49;101889.00;;;11.90
60966;BMP180;46834;51.100;6.886;2023-03-01T15:41:26;101885.00;;;11.90
60966;BMP180;46834;51.100;6.886;2023-03-01T15:43:59;101892.00;;;11.90
60966;BMP180;46834;51.100;6.886;2023-03-01T15:46:33;101875.00;;;11.90
60966;BMP180;46834;51.100;6.886;2023-03-01T15:51:53;101883.00;;;11.90
60966;BMP180;46834;51.100;6.886;2023-03-01T15:54:22;101887.00;;;11.90
60966;BMP180;46834;51.100;6.886;2023-03-01T15:56:49;101881.00;;;11.90
60966;BMP180;46834;51.100;6.886;2023-03-01T15:59:16;101880.00;;;11.90
60966;BMP180;46834;51.100;6.886;2023-03-01T16:01:44;101870.00;;;11.90
60966;BMP180;46834;51.100;6.886;2023-03-01T16:04:17;101873.00;;;11.90